createdAt,value
2022-10-14T00:00:33.717Z,100040.81
2022-10-14T00:05:39.953Z,100040.81
2022-10-14T00:10:42.200Z,100041.63
2022-10-14T00:15:43.750Z,100042.50
2022-10-14T00:20:54.347Z,100035.50
2022-10-14T00:25:55.926Z,100042.78
2022-10-14T00:31:02.448Z,100042.25
2022-10-14T00:36:05.829Z,100041.50
2022-10-14T00:41:12.907Z,100037.19
2022-10-14T00:46:17.678Z,100047.53
2022-10-14T00:51:20.382Z,100050.81
2022-10-14T00:56:28.705Z,100046.97
2022-10-14T01:01:30.406Z,100044.94
2022-10-14T01:06:50.147Z,100040.59
2022-10-14T01:17:47.766Z,100037.97
2022-10-14T01:23:28.222Z,100027.53
2022-10-14T01:28:54.446Z,100036.84
2022-10-14T01:33:59.864Z,100037.81
2022-10-14T01:39:23.796Z,100029.06
2022-10-14T01:44:28.099Z,100027.31
2022-10-14T01:49:35.445Z,100023.78
2022-10-14T01:54:43.068Z,100023.66
2022-10-14T01:59:46.611Z,100021.69
2022-10-14T02:04:48.173Z,100008.63
2022-10-14T02:10:03.231Z,100004.16
2022-10-14T02:15:30.568Z,100010.81
2022-10-14T02:20:37.834Z,100006.69
2022-10-14T02:25:45.210Z,100002.28
2022-10-14T02:30:54.035Z,100004.06
2022-10-14T02:35:56.519Z,100007.34
2022-10-14T02:41:01.787Z,99988.25
2022-10-14T02:46:04.703Z,99989.13
2022-10-14T02:51:06.779Z,99996.69
2022-10-14T02:56:10.294Z,99995.16
2022-10-14T03:01:11.953Z,99992.59
2022-10-14T03:06:14.113Z,99987.53
2022-10-14T03:11:16.387Z,99991.66
2022-10-14T03:16:19.090Z,99985.47
2022-10-14T03:21:20.767Z,99984.38
2022-10-14T03:26:23.893Z,99979.28
2022-10-14T03:31:26.736Z,99979.53
2022-10-14T03:36:46.972Z,99977.50
2022-10-14T03:41:48.853Z,99981.16
2022-10-14T03:46:55.238Z,99981.16
2022-10-14T03:52:04.652Z,99967.47
2022-10-14T03:57:09.477Z,99964.44
2022-10-14T04:02:19.304Z,99962.63
2022-10-14T04:07:21.175Z,99962.31
2022-10-14T04:12:28.515Z,99950.28
2022-10-14T04:17:41.718Z,99951.28
2022-10-14T04:22:48.030Z,99948.50
2022-10-14T04:27:52.088Z,99945.59
2022-10-14T04:32:54.592Z,99944.66
2022-10-14T04:37:56.441Z,99952.69
2022-10-14T04:43:02.001Z,99941.69
2022-10-14T04:48:12.693Z,99943.59
2022-10-14T04:53:21.961Z,99940.97
2022-10-14T04:58:36.657Z,99944.38
2022-10-14T05:03:38.412Z,99936.13
2022-10-14T05:08:39.995Z,99929.34
2022-10-14T05:13:44.672Z,99932.72
2022-10-14T05:18:46.361Z,99931.97
2022-10-14T05:23:48.886Z,99934.50
2022-10-14T05:28:54.309Z,99935.06
2022-10-14T05:33:56.534Z,99932.31
2022-10-14T05:38:59.153Z,99927.06
2022-10-14T05:44:07.226Z,99928.91
2022-10-14T05:49:11.475Z,99928.00
2022-10-14T05:54:13.891Z,99929.84
2022-10-14T05:59:17.670Z,99929.84
2022-10-14T06:04:21.070Z,99936.88
2022-10-14T06:09:23.378Z,99947.47
2022-10-14T06:14:24.998Z,99940.94
2022-10-14T06:19:27.257Z,99933.78
2022-10-14T06:24:28.785Z,99936.88
2022-10-14T06:29:37.673Z,99943.44
2022-10-14T06:34:39.231Z,99939.63
2022-10-14T06:39:42.835Z,99935.44
2022-10-14T06:44:44.387Z,99937.25
2022-10-14T06:49:46.059Z,99936.66
2022-10-14T06:54:48.526Z,99943.69
2022-10-14T06:59:50.232Z,99944.44
2022-10-14T07:04:51.869Z,99949.38
2022-10-14T07:09:54.169Z,99945.53
2022-10-14T07:14:56.342Z,99952.75
2022-10-14T07:19:58.541Z,99959.00
2022-10-14T07:25:00.191Z,99947.69
2022-10-14T07:30:01.772Z,99958.69
2022-10-14T07:35:04.095Z,99953.50
2022-10-14T07:40:06.292Z,99955.69
2022-10-14T07:45:09.176Z,99959.72
2022-10-14T07:50:11.487Z,99964.03
2022-10-14T07:55:13.099Z,99954.22
2022-10-14T08:00:14.709Z,99955.53
2022-10-14T08:05:36.965Z,99962.13
2022-10-14T08:10:38.786Z,99959.44
2022-10-14T08:15:42.667Z,99967.69
2022-10-14T08:20:44.234Z,99966.34
2022-10-14T08:25:49.475Z,99963.63
2022-10-14T08:30:52.812Z,99964.25
2022-10-14T08:35:54.442Z,99961.47
2022-10-14T08:41:16.535Z,99961.81
2022-10-14T08:46:26.397Z,99958.94
2022-10-14T08:51:30.597Z,99955.28
2022-10-14T08:56:35.041Z,99958.63
2022-10-14T09:02:08.580Z,99948.69
2022-10-14T09:07:17.589Z,99947.38
2022-10-14T09:12:32.065Z,99954.22
2022-10-14T09:17:44.272Z,99949.50
2022-10-14T09:22:57.430Z,99947.47
2022-10-14T09:27:59.002Z,99943.63
2022-10-14T09:33:00.971Z,99940.22
2022-10-14T09:38:02.561Z,99927.69
2022-10-14T09:43:10.237Z,99932.09
2022-10-14T09:48:17.383Z,99934.28
2022-10-14T09:53:23.427Z,99926.63
2022-10-14T09:58:32.040Z,99926.44
2022-10-14T10:03:39.855Z,99923.88
2022-10-14T10:08:56.028Z,99904.19
2022-10-14T10:13:58.094Z,99912.84
2022-10-14T10:19:20.532Z,99899.03
2022-10-14T10:24:26.129Z,99901.44
2022-10-14T10:29:32.477Z,99898.81
2022-10-14T10:35:01.803Z,99896.34
2022-10-14T10:40:28.681Z,99889.28
2022-10-14T10:45:50.841Z,99886.25
2022-10-14T10:51:02.082Z,99884.53
2022-10-14T10:56:15.812Z,99879.91
2022-10-14T11:01:48.647Z,99874.56
2022-10-14T11:07:09.185Z,99876.88
2022-10-14T11:12:23.106Z,99861.75
2022-10-14T11:17:41.478Z,99872.13
2022-10-14T11:23:27.456Z,99863.31
2022-10-14T11:29:06.694Z,99864.44
2022-10-14T11:34:24.327Z,99858.81
2022-10-14T11:39:25.848Z,99850.59
2022-10-14T11:44:36.403Z,99849.06
2022-10-14T11:50:18.324Z,99838.06
2022-10-14T11:55:28.833Z,99838.94
2022-10-14T12:01:08.642Z,99830.75
2022-10-14T12:06:19.193Z,99831.16
2022-10-14T12:11:26.695Z,99820.25
2022-10-14T12:16:28.806Z,99808.41
2022-10-14T12:21:40.727Z,99805.81
2022-10-14T12:26:47.143Z,99810.38
2022-10-14T12:32:05.208Z,99805.84
2022-10-14T12:37:38.308Z,99806.41
2022-10-14T12:42:57.677Z,99803.75
2022-10-14T12:48:07.508Z,99799.19
2022-10-14T12:53:37.371Z,99788.25
2022-10-14T12:58:51.522Z,99792.25
2022-10-14T13:03:57.464Z,99788.91
2022-10-14T13:09:17.099Z,99786.56
2022-10-14T13:14:26.109Z,99781.34
2022-10-14T13:19:33.912Z,99771.06
2022-10-14T13:24:41.634Z,99768.81
2022-10-14T13:30:05.736Z,99766.75
2022-10-14T13:35:14.956Z,99754.78
2022-10-14T13:40:20.712Z,99747.19
2022-10-14T13:45:31.016Z,99749.69
2022-10-14T13:50:36.851Z,99744.41
2022-10-14T13:55:51.634Z,99740.41
2022-10-14T14:00:57.438Z,99738.31
2022-10-14T14:06:00.647Z,99733.09
2022-10-14T14:11:16.312Z,99726.38
2022-10-14T14:16:21.577Z,99725.31
2022-10-14T14:21:27.061Z,99724.81
2022-10-14T14:26:37.343Z,99720.41
2022-10-14T14:32:04.985Z,99725.44
2022-10-14T14:37:11.044Z,99715.75
2022-10-14T14:42:25.790Z,99706.28
2022-10-14T14:47:29.045Z,99701.44
2022-10-14T14:52:31.184Z,99694.31
2022-10-14T14:57:32.817Z,99685.25
2022-10-14T15:02:35.060Z,99684.56
2022-10-14T15:07:37.272Z,99687.97
2022-10-14T15:12:41.968Z,99676.41
2022-10-14T15:17:47.593Z,99676.25
2022-10-14T15:22:49.900Z,99683.16
2022-10-14T15:27:57.789Z,99678.38
2022-10-14T15:33:21.281Z,99674.41
2022-10-14T15:38:23.248Z,99672.66
2022-10-14T15:43:27.088Z,99675.69
2022-10-14T15:48:31.311Z,99683.47
2022-10-14T15:53:33.885Z,99670.06
2022-10-14T15:58:35.453Z,99670.78
2022-10-14T16:03:40.884Z,99674.22
2022-10-14T16:08:46.544Z,99671.03
2022-10-14T16:13:50.192Z,99664.16
2022-10-14T16:18:52.492Z,99669.22
2022-10-14T16:23:54.495Z,99655.22
2022-10-14T16:28:56.371Z,99652.31
2022-10-14T16:33:57.977Z,99654.72
2022-10-14T16:39:01.749Z,99652.75
2022-10-14T16:44:05.058Z,99645.75
2022-10-14T16:49:07.987Z,99637.34
2022-10-14T16:54:10.243Z,99639.59
2022-10-14T16:59:13.269Z,99642.13
2022-10-14T17:04:15.394Z,99643.78
2022-10-14T17:09:18.314Z,99639.06
2022-10-14T17:14:23.002Z,99640.28
2022-10-14T17:19:24.831Z,99647.63
2022-10-14T17:24:26.764Z,99655.84
2022-10-14T17:29:29.449Z,99663.25
2022-10-14T17:34:31.955Z,99658.25
2022-10-14T17:39:37.570Z,99651.28
2022-10-14T17:44:43.372Z,99661.53
2022-10-14T17:49:45.492Z,99660.53
2022-10-14T17:54:47.071Z,99662.78
2022-10-14T17:59:49.026Z,99653.03
2022-10-14T18:04:50.610Z,99657.19
2022-10-14T18:09:52.253Z,99648.50
2022-10-14T18:14:54.357Z,99652.38
2022-10-14T18:19:55.915Z,99653.31
2022-10-14T18:24:57.485Z,99647.16
2022-10-14T18:30:00.746Z,99636.69
2022-10-14T18:35:06.764Z,99629.78
2022-10-14T18:40:09.203Z,99619.28
2022-10-14T18:45:10.881Z,99615.66
2022-10-14T18:50:12.428Z,99614.97
2022-10-14T18:55:14.085Z,99622.53
2022-10-14T19:00:16.343Z,99621.53
2022-10-14T19:05:18.170Z,99613.75
2022-10-14T19:10:21.239Z,99612.50
2022-10-14T19:15:26.280Z,99602.75
2022-10-14T19:20:27.899Z,99599.97
2022-10-14T19:25:29.812Z,99590.97
2022-10-14T19:30:31.711Z,99589.47
2022-10-14T19:35:33.341Z,99578.84
2022-10-14T19:40:36.452Z,99567.88
2022-10-14T19:45:40.630Z,99571.09
2022-10-14T19:50:42.373Z,99552.72
2022-10-14T19:55:44.149Z,99545.69
2022-10-14T20:00:45.699Z,99540.38
2022-10-14T20:05:47.244Z,99530.34
2022-10-14T20:10:48.839Z,99531.16
2022-10-14T20:16:00.245Z,99528.84
2022-10-14T20:21:03.639Z,99514.28
2022-10-14T20:26:12.480Z,99516.88
2022-10-14T20:31:17.266Z,99510.56
2022-10-14T20:36:21.487Z,99513.66
2022-10-14T20:41:25.605Z,99494.81
2022-10-14T20:46:27.199Z,99499.56
2022-10-14T20:51:29.264Z,99506.41
2022-10-14T20:56:31.923Z,99506.53
2022-10-14T21:01:35.439Z,99491.09
2022-10-14T21:06:38.822Z,99484.44
2022-10-14T21:11:41.683Z,99489.09
2022-10-14T21:16:43.786Z,99487.03
2022-10-14T21:21:45.542Z,99474.41
2022-10-14T21:26:51.869Z,99460.50
2022-10-14T21:31:53.402Z,99459.66
2022-10-14T21:36:55.027Z,99449.97
2022-10-14T21:41:57.225Z,99444.00
2022-10-14T21:46:58.909Z,99438.31
2022-10-14T21:52:00.814Z,99432.72
2022-10-14T21:57:02.413Z,99427.13
2022-10-14T22:02:03.987Z,99423.09
2022-10-14T22:07:06.584Z,99424.31
2022-10-14T22:12:08.148Z,99415.88
2022-10-14T22:17:09.807Z,99409.06
2022-10-14T22:22:11.360Z,99402.22
2022-10-14T22:27:12.935Z,99390.88
2022-10-14T22:32:14.465Z,99384.75
2022-10-14T22:37:16.030Z,99380.03
2022-10-14T22:42:17.639Z,99378.41
2022-10-14T22:47:19.298Z,99378.00
2022-10-14T22:52:21.016Z,99374.84
2022-10-14T22:57:22.791Z,99374.16
2022-10-14T23:02:24.685Z,99370.66
2022-10-14T23:07:28.866Z,99366.97
2022-10-14T23:12:30.500Z,99361.97
2022-10-14T23:17:32.179Z,99365.69
2022-10-14T23:22:34.267Z,99364.22
2022-10-14T23:27:36.425Z,99353.97
2022-10-14T23:32:38.448Z,99344.09
2022-10-14T23:37:40.068Z,99344.19
2022-10-14T23:42:42.077Z,99335.38
2022-10-14T23:47:43.677Z,99326.78
2022-10-14T23:52:45.993Z,99320.72
2022-10-14T23:57:47.607Z,99332.81
